Little Rock, Arkansas
Current Conditions -  °F | °C
As of 1:53 PM on Thursday 20 Nov 2014 (Local Time) from KLIT Reporting Station
Scattered Clouds Scattered Clouds  
Wind Chill: 56°   Ceiling: Unl
Heat Index: 56°   Visibility: 10mi
Dew Point: 29°   Wind: 7mph
Humidity: 36%   Direction: 120°ESE
Pressure: 30.18"   Gusts: NA
Location:  34.75°N, 92.27°W
Report Text: KLIT 201953Z 12006KT 10SM FEW070 SCT250 13/M02 A3018 RMK AO2 SLP223 T01331017
Loading
Personal Weather Stations






























Interactive Weather Map New forecast layout! Learn more

10-Day Weather Forecast

Advertisements
Track Severe Weather on mobile